sensor_id;sensor_type;location;lat;lon;timestamp;P1;durP1;ratioP1;P2;durP2;ratioP2
19836;SDS011;10079;55.740;37.662;2022-07-21T00:02:10;1.50;;;0.80;;
19836;SDS011;10079;55.740;37.662;2022-07-21T00:04:51;1.63;;;0.80;;
19836;SDS011;10079;55.740;37.662;2022-07-21T00:07:31;1.00;;;0.80;;
19836;SDS011;10079;55.740;37.662;2022-07-21T00:10:12;1.33;;;0.70;;
19836;SDS011;10079;55.740;37.662;2022-07-21T00:12:54;0.93;;;0.60;;
19836;SDS011;10079;55.740;37.662;2022-07-21T00:15:34;0.80;;;0.80;;
19836;SDS011;10079;55.740;37.662;2022-07-21T00:18:15;1.73;;;1.03;;
19836;SDS011;10079;55.740;37.662;2022-07-21T00:31:51;3.97;;;2.10;;
19836;SDS011;10079;55.740;37.662;2022-07-21T00:34:40;1.60;;;1.00;;
19836;SDS011;10079;55.740;37.662;2022-07-21T00:58:35;2.40;;;1.53;;
19836;SDS011;10079;55.740;37.662;2022-07-21T01:01:28;2.93;;;1.37;;
19836;SDS011;10079;55.740;37.662;2022-07-21T01:04:08;3.00;;;1.50;;
19836;SDS011;10079;55.740;37.662;2022-07-21T01:06:53;2.67;;;1.80;;
19836;SDS011;10079;55.740;37.662;2022-07-21T01:09:45;2.53;;;1.30;;
19836;SDS011;10079;55.740;37.662;2022-07-21T01:12:29;1.47;;;1.37;;
19836;SDS011;10079;55.740;37.662;2022-07-21T01:15:14;3.80;;;2.37;;
19836;SDS011;10079;55.740;37.662;2022-07-21T01:17:58;1.70;;;1.60;;
19836;SDS011;10079;55.740;37.662;2022-07-21T01:20:42;3.73;;;2.13;;
19836;SDS011;10079;55.740;37.662;2022-07-21T01:23:35;5.60;;;2.30;;
19836;SDS011;10079;55.740;37.662;2022-07-21T01:26:15;1.93;;;1.27;;
19836;SDS011;10079;55.740;37.662;2022-07-21T01:29:05;2.83;;;2.20;;
19836;SDS011;10079;55.740;37.662;2022-07-21T01:31:49;5.03;;;2.80;;
19836;SDS011;10079;55.740;37.662;2022-07-21T01:34:42;2.00;;;1.60;;
19836;SDS011;10079;55.740;37.662;2022-07-21T01:37:27;3.30;;;2.10;;
19836;SDS011;10079;55.740;37.662;2022-07-21T01:50:38;5.90;;;2.50;;
19836;SDS011;10079;55.740;37.662;2022-07-21T01:53:27;1.90;;;1.67;;
19836;SDS011;10079;55.740;37.662;2022-07-21T01:56:11;3.07;;;1.60;;
19836;SDS011;10079;55.740;37.662;2022-07-21T01:58:52;1.60;;;1.10;;
19836;SDS011;10079;55.740;37.662;2022-07-21T02:01:33;3.30;;;1.40;;
19836;SDS011;10079;55.740;37.662;2022-07-21T02:04:26;1.37;;;1.20;;
19836;SDS011;10079;55.740;37.662;2022-07-21T02:07:18;2.33;;;1.60;;
19836;SDS011;10079;55.740;37.662;2022-07-21T02:10:03;1.77;;;1.20;;
19836;SDS011;10079;55.740;37.662;2022-07-21T02:12:44;1.43;;;1.30;;
19836;SDS011;10079;55.740;37.662;2022-07-21T02:15:26;1.40;;;1.30;;
19836;SDS011;10079;55.740;37.662;2022-07-21T02:18:07;2.00;;;1.33;;
19836;SDS011;10079;55.740;37.662;2022-07-21T02:20:51;2.37;;;1.40;;
19836;SDS011;10079;55.740;37.662;2022-07-21T02:23:32;1.30;;;1.20;;
19836;SDS011;10079;55.740;37.662;2022-07-21T02:26:16;1.20;;;1.10;;
19836;SDS011;10079;55.740;37.662;2022-07-21T02:28:58;1.30;;;1.20;;
19836;SDS011;10079;55.740;37.662;2022-07-21T02:31:39;1.73;;;1.40;;
19836;SDS011;10079;55.740;37.662;2022-07-21T02:34:20;1.60;;;1.10;;
19836;SDS011;10079;55.740;37.662;2022-07-21T02:37:01;1.17;;;1.00;;
19836;SDS011;10079;55.740;37.662;2022-07-21T02:39:41;3.30;;;1.30;;
19836;SDS011;10079;55.740;37.662;2022-07-21T02:42:22;2.03;;;1.27;;
19836;SDS011;10079;55.740;37.662;2022-07-21T02:45:12;2.37;;;1.27;;
19836;SDS011;10079;55.740;37.662;2022-07-21T02:47:55;1.40;;;1.07;;
19836;SDS011;10079;55.740;37.662;2022-07-21T02:50:38;2.60;;;1.30;;
19836;SDS011;10079;55.740;37.662;2022-07-21T02:53:22;1.80;;;1.37;;
19836;SDS011;10079;55.740;37.662;2022-07-21T02:56:02;2.33;;;1.30;;
19836;SDS011;10079;55.740;37.662;2022-07-21T02:58:44;1.80;;;1.10;;
19836;SDS011;10079;55.740;37.662;2022-07-21T03:01:24;1.90;;;1.60;;
19836;SDS011;10079;55.740;37.662;2022-07-21T03:04:05;1.87;;;1.20;;
19836;SDS011;10079;55.740;37.662;2022-07-21T03:06:46;1.97;;;1.73;;
19836;SDS011;10079;55.740;37.662;2022-07-21T03:09:27;5.30;;;1.60;;
19836;SDS011;10079;55.740;37.662;2022-07-21T03:12:08;2.20;;;1.67;;
19836;SDS011;10079;55.740;37.662;2022-07-21T03:14:49;1.70;;;1.47;;
19836;SDS011;10079;55.740;37.662;2022-07-21T03:17:30;2.07;;;1.40;;
19836;SDS011;10079;55.740;37.662;2022-07-21T03:20:21;2.20;;;1.30;;
19836;SDS011;10079;55.740;37.662;2022-07-21T03:23:00;2.47;;;1.63;;
19836;SDS011;10079;55.740;37.662;2022-07-21T03:25:42;2.00;;;1.33;;
19836;SDS011;10079;55.740;37.662;2022-07-21T03:28:31;1.77;;;1.40;;
19836;SDS011;10079;55.740;37.662;2022-07-21T03:31:15;2.17;;;1.40;;
19836;SDS011;10079;55.740;37.662;2022-07-21T03:34:04;1.60;;;1.13;;
19836;SDS011;10079;55.740;37.662;2022-07-21T03:47:16;2.07;;;1.50;;
19836;SDS011;10079;55.740;37.662;2022-07-21T04:00:44;2.73;;;1.60;;
19836;SDS011;10079;55.740;37.662;2022-07-21T04:03:27;2.77;;;1.67;;
19836;SDS011;10079;55.740;37.662;2022-07-21T04:06:20;1.40;;;1.30;;
19836;SDS011;10079;55.740;37.662;2022-07-21T04:09:01;1.70;;;1.57;;
19836;SDS011;10079;55.740;37.662;2022-07-21T04:11:43;1.93;;;1.40;;
19836;SDS011;10079;55.740;37.662;2022-07-21T04:14:26;1.93;;;1.67;;
19836;SDS011;10079;55.740;37.662;2022-07-21T04:17:08;2.00;;;1.70;;
19836;SDS011;10079;55.740;37.662;2022-07-21T04:19:49;2.27;;;1.73;;
19836;SDS011;10079;55.740;37.662;2022-07-21T04:22:43;2.67;;;2.00;;
19836;SDS011;10079;55.740;37.662;2022-07-21T04:25:35;2.43;;;1.47;;
19836;SDS011;10079;55.740;37.662;2022-07-21T04:28:17;2.83;;;1.90;;
19836;SDS011;10079;55.740;37.662;2022-07-21T04:31:09;2.70;;;1.80;;
19836;SDS011;10079;55.740;37.662;2022-07-21T04:33:50;2.30;;;2.07;;
19836;SDS011;10079;55.740;37.662;2022-07-21T04:36:32;2.47;;;2.03;;
19836;SDS011;10079;55.740;37.662;2022-07-21T04:39:14;3.73;;;2.13;;
19836;SDS011;10079;55.740;37.662;2022-07-21T04:41:55;2.30;;;2.10;;
19836;SDS011;10079;55.740;37.662;2022-07-21T04:44:40;4.87;;;2.30;;
19836;SDS011;10079;55.740;37.662;2022-07-21T04:47:21;2.20;;;2.00;;
19836;SDS011;10079;55.740;37.662;2022-07-21T04:50:10;2.53;;;2.30;;
19836;SDS011;10079;55.740;37.662;2022-07-21T04:52:54;2.70;;;2.37;;
19836;SDS011;10079;55.740;37.662;2022-07-21T04:55:39;2.93;;;2.20;;
19836;SDS011;10079;55.740;37.662;2022-07-21T04:58:20;4.03;;;2.20;;
19836;SDS011;10079;55.740;37.662;2022-07-21T05:01:01;1.97;;;1.87;;
19836;SDS011;10079;55.740;37.662;2022-07-21T05:03:45;2.47;;;2.17;;
19836;SDS011;10079;55.740;37.662;2022-07-21T05:06:26;2.97;;;2.30;;
19836;SDS011;10079;55.740;37.662;2022-07-21T05:09:11;2.60;;;2.10;;
19836;SDS011;10079;55.740;37.662;2022-07-21T05:11:51;2.20;;;2.00;;
19836;SDS011;10079;55.740;37.662;2022-07-21T05:14:32;2.90;;;2.60;;
19836;SDS011;10079;55.740;37.662;2022-07-21T05:17:13;4.07;;;2.40;;
19836;SDS011;10079;55.740;37.662;2022-07-21T05:19:58;4.40;;;2.50;;
19836;SDS011;10079;55.740;37.662;2022-07-21T05:22:40;2.50;;;2.20;;
19836;SDS011;10079;55.740;37.662;2022-07-21T05:25:24;2.30;;;2.10;;
19836;SDS011;10079;55.740;37.662;2022-07-21T05:28:05;2.73;;;2.47;;
19836;SDS011;10079;55.740;37.662;2022-07-21T05:30:49;4.33;;;2.00;;
19836;SDS011;10079;55.740;37.662;2022-07-21T05:33:30;3.87;;;2.30;;
19836;SDS011;10079;55.740;37.662;2022-07-21T05:36:12;2.03;;;1.83;;
19836;SDS011;10079;55.740;37.662;2022-07-21T05:38:53;2.63;;;1.70;;
19836;SDS011;10079;55.740;37.662;2022-07-21T05:41:34;1.63;;;1.53;;
19836;SDS011;10079;55.740;37.662;2022-07-21T05:44:15;2.63;;;2.03;;
19836;SDS011;10079;55.740;37.662;2022-07-21T05:46:56;1.87;;;1.53;;
19836;SDS011;10079;55.740;37.662;2022-07-21T05:49:40;1.87;;;1.77;;
19836;SDS011;10079;55.740;37.662;2022-07-21T05:52:21;2.20;;;1.97;;
19836;SDS011;10079;55.740;37.662;2022-07-21T05:55:03;3.07;;;2.10;;
19836;SDS011;10079;55.740;37.662;2022-07-21T05:57:45;2.27;;;2.07;;
19836;SDS011;10079;55.740;37.662;2022-07-21T06:00:26;4.53;;;2.50;;
19836;SDS011;10079;55.740;37.662;2022-07-21T06:03:10;2.50;;;1.63;;
19836;SDS011;10079;55.740;37.662;2022-07-21T06:05:52;1.73;;;1.40;;
19836;SDS011;10079;55.740;37.662;2022-07-21T06:08:33;2.60;;;2.00;;
19836;SDS011;10079;55.740;37.662;2022-07-21T06:11:15;2.13;;;1.93;;
19836;SDS011;10079;55.740;37.662;2022-07-21T06:13:55;3.00;;;2.30;;
19836;SDS011;10079;55.740;37.662;2022-07-21T06:16:36;2.50;;;1.80;;
19836;SDS011;10079;55.740;37.662;2022-07-21T06:19:17;2.33;;;1.80;;
19836;SDS011;10079;55.740;37.662;2022-07-21T06:21:58;1.90;;;1.67;;
19836;SDS011;10079;55.740;37.662;2022-07-21T06:24:48;2.23;;;1.80;;
19836;SDS011;10079;55.740;37.662;2022-07-21T06:27:32;1.83;;;1.60;;
19836;SDS011;10079;55.740;37.662;2022-07-21T06:30:25;1.93;;;1.70;;
19836;SDS011;10079;55.740;37.662;2022-07-21T06:33:14;2.77;;;1.70;;
19836;SDS011;10079;55.740;37.662;2022-07-21T06:57:25;3.37;;;1.57;;
19836;SDS011;10079;55.740;37.662;2022-07-21T07:00:10;1.70;;;1.30;;
19836;SDS011;10079;55.740;37.662;2022-07-21T07:02:55;3.07;;;1.10;;
19836;SDS011;10079;55.740;37.662;2022-07-21T07:05:36;2.93;;;1.27;;
19836;SDS011;10079;55.740;37.662;2022-07-21T07:08:17;1.67;;;1.40;;
19836;SDS011;10079;55.740;37.662;2022-07-21T07:11:01;2.50;;;1.67;;
19836;SDS011;10079;55.740;37.662;2022-07-21T07:13:46;3.23;;;1.60;;
19836;SDS011;10079;55.740;37.662;2022-07-21T07:16:26;1.83;;;1.63;;
19836;SDS011;10079;55.740;37.662;2022-07-21T07:19:19;2.70;;;2.07;;
19836;SDS011;10079;55.740;37.662;2022-07-21T07:22:00;2.13;;;1.90;;
19836;SDS011;10079;55.740;37.662;2022-07-21T07:24:44;2.23;;;1.70;;
19836;SDS011;10079;55.740;37.662;2022-07-21T07:27:37;2.07;;;1.60;;
19836;SDS011;10079;55.740;37.662;2022-07-21T07:30:18;2.43;;;2.00;;
19836;SDS011;10079;55.740;37.662;2022-07-21T07:32:58;2.00;;;1.80;;
19836;SDS011;10079;55.740;37.662;2022-07-21T07:35:40;1.87;;;1.77;;
19836;SDS011;10079;55.740;37.662;2022-07-21T07:38:21;2.87;;;2.43;;
19836;SDS011;10079;55.740;37.662;2022-07-21T07:41:02;2.50;;;1.97;;
19836;SDS011;10079;55.740;37.662;2022-07-21T07:43:52;3.23;;;2.07;;
19836;SDS011;10079;55.740;37.662;2022-07-21T07:46:36;3.60;;;2.20;;
19836;SDS011;10079;55.740;37.662;2022-07-21T07:49:17;6.17;;;2.70;;
19836;SDS011;10079;55.740;37.662;2022-07-21T07:51:58;4.53;;;2.30;;
19836;SDS011;10079;55.740;37.662;2022-07-21T07:54:39;2.57;;;2.37;;
19836;SDS011;10079;55.740;37.662;2022-07-21T07:57:23;5.40;;;3.00;;
19836;SDS011;10079;55.740;37.662;2022-07-21T08:00:05;4.60;;;3.23;;
19836;SDS011;10079;55.740;37.662;2022-07-21T08:02:47;4.90;;;3.23;;
19836;SDS011;10079;55.740;37.662;2022-07-21T08:05:28;4.97;;;3.47;;
19836;SDS011;10079;55.740;37.662;2022-07-21T08:08:09;5.77;;;3.90;;
19836;SDS011;10079;55.740;37.662;2022-07-21T08:10:50;5.97;;;4.00;;
19836;SDS011;10079;55.740;37.662;2022-07-21T08:13:31;5.10;;;3.13;;
19836;SDS011;10079;55.740;37.662;2022-07-21T08:16:12;5.33;;;4.03;;
19836;SDS011;10079;55.740;37.662;2022-07-21T08:18:53;3.40;;;3.10;;
19836;SDS011;10079;55.740;37.662;2022-07-21T08:21:34;3.93;;;3.00;;
19836;SDS011;10079;55.740;37.662;2022-07-21T08:24:18;8.23;;;3.33;;
19836;SDS011;10079;55.740;37.662;2022-07-21T08:26:59;4.23;;;2.77;;
19836;SDS011;10079;55.740;37.662;2022-07-21T08:29:41;4.10;;;3.33;;
19836;SDS011;10079;55.740;37.662;2022-07-21T08:32:22;4.57;;;3.40;;
19836;SDS011;10079;55.740;37.662;2022-07-21T08:35:14;3.20;;;2.90;;
19836;SDS011;10079;55.740;37.662;2022-07-21T08:38:05;5.83;;;2.70;;
19836;SDS011;10079;55.740;37.662;2022-07-21T08:40:45;3.30;;;2.97;;
19836;SDS011;10079;55.740;37.662;2022-07-21T08:43:26;3.05;;;2.40;;
19836;SDS011;10079;55.740;37.662;2022-07-21T08:46:06;3.55;;;2.83;;
19836;SDS011;10079;55.740;37.662;2022-07-21T08:51:31;2.25;;;2.05;;
19836;SDS011;10079;55.740;37.662;2022-07-21T09:04:48;2.80;;;1.95;;
19836;SDS011;10079;55.740;37.662;2022-07-21T09:07:29;3.45;;;2.28;;
19836;SDS011;10079;55.740;37.662;2022-07-21T09:10:10;1.80;;;1.70;;
19836;SDS011;10079;55.740;37.662;2022-07-21T09:12:53;2.47;;;1.70;;
19836;SDS011;10079;55.740;37.662;2022-07-21T09:15:34;2.40;;;1.60;;
19836;SDS011;10079;55.740;37.662;2022-07-21T09:18:15;2.12;;;1.75;;
19836;SDS011;10079;55.740;37.662;2022-07-21T09:20:55;1.60;;;1.50;;
19836;SDS011;10079;55.740;37.662;2022-07-21T09:45:07;1.75;;;1.40;;
19836;SDS011;10079;55.740;37.662;2022-07-21T09:47:52;1.58;;;1.48;;
19836;SDS011;10079;55.740;37.662;2022-07-21T09:50:42;2.42;;;1.52;;
19836;SDS011;10079;55.740;37.662;2022-07-21T10:14:39;1.40;;;1.30;;
19836;SDS011;10079;55.740;37.662;2022-07-21T10:17:22;1.45;;;1.35;;
19836;SDS011;10079;55.740;37.662;2022-07-21T10:20:16;1.80;;;1.55;;
19836;SDS011;10079;55.740;37.662;2022-07-21T10:23:10;1.90;;;1.50;;
19836;SDS011;10079;55.740;37.662;2022-07-21T10:25:53;1.75;;;1.60;;
19836;SDS011;10079;55.740;37.662;2022-07-21T10:28:37;1.42;;;1.33;;
19836;SDS011;10079;55.740;37.662;2022-07-21T10:31:20;1.40;;;1.30;;
19836;SDS011;10079;55.740;37.662;2022-07-21T10:34:00;1.30;;;1.17;;
19836;SDS011;10079;55.740;37.662;2022-07-21T10:42:14;1.77;;;1.30;;
19836;SDS011;10079;55.740;37.662;2022-07-21T10:44:58;2.30;;;1.50;;
19836;SDS011;10079;55.740;37.662;2022-07-21T10:47:39;1.52;;;1.42;;
19836;SDS011;10079;55.740;37.662;2022-07-21T10:53:15;2.55;;;1.75;;
19836;SDS011;10079;55.740;37.662;2022-07-21T10:55:58;1.92;;;1.70;;
19836;SDS011;10079;55.740;37.662;2022-07-21T10:58:40;2.58;;;1.48;;
19836;SDS011;10079;55.740;37.662;2022-07-21T11:01:21;1.55;;;1.45;;
19836;SDS011;10079;55.740;37.662;2022-07-21T11:04:11;2.10;;;1.50;;
19836;SDS011;10079;55.740;37.662;2022-07-21T11:06:54;1.60;;;1.50;;
19836;SDS011;10079;55.740;37.662;2022-07-21T11:09:35;2.40;;;1.63;;
19836;SDS011;10079;55.740;37.662;2022-07-21T11:12:16;3.20;;;1.70;;
19836;SDS011;10079;55.740;37.662;2022-07-21T11:15:11;1.70;;;1.60;;
19836;SDS011;10079;55.740;37.662;2022-07-21T11:17:50;3.57;;;1.60;;
19836;SDS011;10079;55.740;37.662;2022-07-21T11:20:31;3.83;;;1.40;;
19836;SDS011;10079;55.740;37.662;2022-07-21T11:23:12;3.27;;;1.30;;
19836;SDS011;10079;55.740;37.662;2022-07-21T11:25:53;1.70;;;1.60;;
19836;SDS011;10079;55.740;37.662;2022-07-21T11:28:34;1.77;;;1.50;;
19836;SDS011;10079;55.740;37.662;2022-07-21T11:31:26;1.63;;;1.30;;
19836;SDS011;10079;55.740;37.662;2022-07-21T11:34:07;3.00;;;1.50;;
19836;SDS011;10079;55.740;37.662;2022-07-21T11:36:57;2.12;;;1.92;;
19836;SDS011;10079;55.740;37.662;2022-07-21T11:39:29;1.58;;;1.48;;
19836;SDS011;10079;55.740;37.662;2022-07-21T11:42:11;3.37;;;1.50;;
19836;SDS011;10079;55.740;37.662;2022-07-21T11:44:51;2.40;;;1.70;;
19836;SDS011;10079;55.740;37.662;2022-07-21T11:47:35;2.15;;;1.67;;
19836;SDS011;10079;55.740;37.662;2022-07-21T11:50:16;3.77;;;1.70;;
19836;SDS011;10079;55.740;37.662;2022-07-21T11:52:56;1.87;;;1.35;;
19836;SDS011;10079;55.740;37.662;2022-07-21T11:55:37;1.67;;;1.58;;
19836;SDS011;10079;55.740;37.662;2022-07-21T11:58:18;2.80;;;1.70;;
19836;SDS011;10079;55.740;37.662;2022-07-21T12:01:04;4.75;;;1.70;;
19836;SDS011;10079;55.740;37.662;2022-07-21T12:03:47;2.55;;;1.50;;
19836;SDS011;10079;55.740;37.662;2022-07-21T12:06:39;2.40;;;1.60;;
19836;SDS011;10079;55.740;37.662;2022-07-21T12:09:20;2.37;;;1.40;;
19836;SDS011;10079;55.740;37.662;2022-07-21T12:12:01;1.77;;;1.40;;
19836;SDS011;10079;55.740;37.662;2022-07-21T12:14:43;2.83;;;1.67;;
19836;SDS011;10079;55.740;37.662;2022-07-21T12:17:31;1.70;;;1.57;;
19836;SDS011;10079;55.740;37.662;2022-07-21T12:20:14;2.67;;;2.00;;
19836;SDS011;10079;55.740;37.662;2022-07-21T12:22:58;2.37;;;1.80;;
19836;SDS011;10079;55.740;37.662;2022-07-21T12:25:43;1.80;;;1.70;;
19836;SDS011;10079;55.740;37.662;2022-07-21T12:28:43;2.55;;;1.73;;
19836;SDS011;10079;55.740;37.662;2022-07-21T12:41:30;2.67;;;1.60;;
19836;SDS011;10079;55.740;37.662;2022-07-21T12:44:14;2.97;;;1.98;;
19836;SDS011;10079;55.740;37.662;2022-07-21T12:57:11;4.03;;;1.97;;
19836;SDS011;10079;55.740;37.662;2022-07-21T13:00:04;1.75;;;1.60;;
19836;SDS011;10079;55.740;37.662;2022-07-21T13:02:51;1.83;;;1.73;;
19836;SDS011;10079;55.740;37.662;2022-07-21T13:05:40;3.50;;;1.80;;
19836;SDS011;10079;55.740;37.662;2022-07-21T13:08:24;3.07;;;1.70;;
19836;SDS011;10079;55.740;37.662;2022-07-21T13:11:08;2.50;;;1.70;;
19836;SDS011;10079;55.740;37.662;2022-07-21T13:13:57;2.07;;;1.80;;
19836;SDS011;10079;55.740;37.662;2022-07-21T13:16:38;3.67;;;1.50;;
19836;SDS011;10079;55.740;37.662;2022-07-21T13:19:23;3.47;;;1.90;;
19836;SDS011;10079;55.740;37.662;2022-07-21T13:22:05;4.87;;;1.67;;
19836;SDS011;10079;55.740;37.662;2022-07-21T13:24:46;2.73;;;1.80;;
19836;SDS011;10079;55.740;37.662;2022-07-21T13:27:35;1.70;;;1.60;;
19836;SDS011;10079;55.740;37.662;2022-07-21T13:30:25;2.73;;;1.50;;
19836;SDS011;10079;55.740;37.662;2022-07-21T13:33:06;2.20;;;1.90;;
19836;SDS011;10079;55.740;37.662;2022-07-21T13:35:47;1.70;;;1.60;;
19836;SDS011;10079;55.740;37.662;2022-07-21T13:38:37;1.73;;;1.63;;
19836;SDS011;10079;55.740;37.662;2022-07-21T13:41:21;1.83;;;1.63;;
19836;SDS011;10079;55.740;37.662;2022-07-21T13:44:02;2.07;;;1.50;;
19836;SDS011;10079;55.740;37.662;2022-07-21T13:46:44;2.53;;;1.70;;
19836;SDS011;10079;55.740;37.662;2022-07-21T13:49:25;2.70;;;1.87;;
19836;SDS011;10079;55.740;37.662;2022-07-21T13:52:09;2.87;;;1.80;;
19836;SDS011;10079;55.740;37.662;2022-07-21T13:54:50;3.50;;;2.20;;
19836;SDS011;10079;55.740;37.662;2022-07-21T13:57:35;2.37;;;1.55;;
19836;SDS011;10079;55.740;37.662;2022-07-21T14:00:16;2.13;;;1.70;;
19836;SDS011;10079;55.740;37.662;2022-07-21T14:02:57;4.73;;;2.27;;
19836;SDS011;10079;55.740;37.662;2022-07-21T14:05:39;4.07;;;1.80;;
19836;SDS011;10079;55.740;37.662;2022-07-21T14:08:19;3.33;;;1.90;;
19836;SDS011;10079;55.740;37.662;2022-07-21T14:11:04;3.70;;;2.10;;
19836;SDS011;10079;55.740;37.662;2022-07-21T14:13:45;1.73;;;1.60;;
19836;SDS011;10079;55.740;37.662;2022-07-21T14:16:26;5.23;;;2.37;;
19836;SDS011;10079;55.740;37.662;2022-07-21T14:19:07;1.67;;;1.57;;
19836;SDS011;10079;55.740;37.662;2022-07-21T14:21:48;3.07;;;1.83;;
19836;SDS011;10079;55.740;37.662;2022-07-21T14:24:32;1.97;;;1.80;;
19836;SDS011;10079;55.740;37.662;2022-07-21T14:27:12;3.30;;;2.03;;
19836;SDS011;10079;55.740;37.662;2022-07-21T14:29:56;2.97;;;1.83;;
19836;SDS011;10079;55.740;37.662;2022-07-21T14:32:37;2.87;;;2.33;;
19836;SDS011;10079;55.740;37.662;2022-07-21T14:35:18;3.07;;;2.33;;
19836;SDS011;10079;55.740;37.662;2022-07-21T14:38:02;2.20;;;2.00;;
19836;SDS011;10079;55.740;37.662;2022-07-21T14:40:55;3.27;;;1.70;;
19836;SDS011;10079;55.740;37.662;2022-07-21T14:43:36;2.67;;;2.07;;
19836;SDS011;10079;55.740;37.662;2022-07-21T14:48:14;3.50;;;1.80;;
19836;SDS011;10079;55.740;37.662;2022-07-21T14:50:55;4.20;;;1.83;;
19836;SDS011;10079;55.740;37.662;2022-07-21T14:53:36;1.43;;;1.33;;
19836;SDS011;10079;55.740;37.662;2022-07-21T14:56:20;1.97;;;1.53;;
19836;SDS011;10079;55.740;37.662;2022-07-21T14:59:01;2.03;;;1.33;;
19836;SDS011;10079;55.740;37.662;2022-07-21T15:01:42;3.77;;;1.77;;
19836;SDS011;10079;55.740;37.662;2022-07-21T15:04:27;1.70;;;1.60;;
19836;SDS011;10079;55.740;37.662;2022-07-21T15:07:08;2.40;;;1.30;;
19836;SDS011;10079;55.740;37.662;2022-07-21T15:09:52;2.67;;;1.40;;
19836;SDS011;10079;55.740;37.662;2022-07-21T15:12:33;2.60;;;2.13;;
19836;SDS011;10079;55.740;37.662;2022-07-21T15:15:14;3.07;;;1.50;;
19836;SDS011;10079;55.740;37.662;2022-07-21T15:17:54;1.70;;;1.33;;
19836;SDS011;10079;55.740;37.662;2022-07-21T15:20:35;1.53;;;1.30;;
19836;SDS011;10079;55.740;37.662;2022-07-21T15:23:16;2.40;;;1.33;;
19836;SDS011;10079;55.740;37.662;2022-07-21T15:25:57;2.43;;;1.40;;
19836;SDS011;10079;55.740;37.662;2022-07-21T15:28:47;3.23;;;1.20;;
19836;SDS011;10079;55.740;37.662;2022-07-21T15:31:31;2.70;;;1.40;;
19836;SDS011;10079;55.740;37.662;2022-07-21T15:45:00;2.87;;;1.57;;
19836;SDS011;10079;55.740;37.662;2022-07-21T15:47:53;2.83;;;1.50;;
19836;SDS011;10079;55.740;37.662;2022-07-21T15:50:34;2.80;;;1.90;;
19836;SDS011;10079;55.740;37.662;2022-07-21T15:53:18;2.37;;;1.80;;
19836;SDS011;10079;55.740;37.662;2022-07-21T15:56:03;4.33;;;1.80;;
19836;SDS011;10079;55.740;37.662;2022-07-21T15:58:52;3.43;;;1.80;;
19836;SDS011;10079;55.740;37.662;2022-07-21T16:01:36;3.53;;;1.50;;
19836;SDS011;10079;55.740;37.662;2022-07-21T16:04:26;1.87;;;1.43;;
19836;SDS011;10079;55.740;37.662;2022-07-21T16:07:10;2.67;;;1.30;;
19836;SDS011;10079;55.740;37.662;2022-07-21T16:10:00;2.20;;;1.60;;
19836;SDS011;10079;55.740;37.662;2022-07-21T16:12:44;2.53;;;1.43;;
19836;SDS011;10079;55.740;37.662;2022-07-21T16:15:28;4.73;;;1.57;;
19836;SDS011;10079;55.740;37.662;2022-07-21T16:18:13;1.90;;;1.70;;
19836;SDS011;10079;55.740;37.662;2022-07-21T16:20:54;3.60;;;2.67;;
19836;SDS011;10079;55.740;37.662;2022-07-21T16:23:35;2.13;;;1.70;;
19836;SDS011;10079;55.740;37.662;2022-07-21T16:26:16;2.87;;;1.70;;
19836;SDS011;10079;55.740;37.662;2022-07-21T16:29:06;4.07;;;1.60;;
19836;SDS011;10079;55.740;37.662;2022-07-21T16:31:47;5.20;;;1.53;;
19836;SDS011;10079;55.740;37.662;2022-07-21T16:34:37;1.60;;;1.50;;
19836;SDS011;10079;55.740;37.662;2022-07-21T16:37:18;2.63;;;1.83;;
19836;SDS011;10079;55.740;37.662;2022-07-21T16:40:11;4.73;;;2.33;;
19836;SDS011;10079;55.740;37.662;2022-07-21T16:42:53;2.37;;;1.60;;
19836;SDS011;10079;55.740;37.662;2022-07-21T16:45:35;5.00;;;1.87;;
19836;SDS011;10079;55.740;37.662;2022-07-21T16:48:19;2.67;;;1.40;;
19836;SDS011;10079;55.740;37.662;2022-07-21T16:51:00;5.23;;;1.33;;
19836;SDS011;10079;55.740;37.662;2022-07-21T16:53:46;1.87;;;1.43;;
19836;SDS011;10079;55.740;37.662;2022-07-21T16:56:27;3.87;;;2.00;;
19836;SDS011;10079;55.740;37.662;2022-07-21T16:59:09;8.80;;;1.90;;
19836;SDS011;10079;55.740;37.662;2022-07-21T17:01:49;4.00;;;1.87;;
19836;SDS011;10079;55.740;37.662;2022-07-21T17:04:30;4.33;;;1.80;;
19836;SDS011;10079;55.740;37.662;2022-07-21T17:07:11;3.40;;;1.30;;
19836;SDS011;10079;55.740;37.662;2022-07-21T17:10:01;5.47;;;2.27;;
19836;SDS011;10079;55.740;37.662;2022-07-21T17:12:42;3.50;;;1.50;;
19836;SDS011;10079;55.740;37.662;2022-07-21T17:15:23;3.40;;;1.90;;
19836;SDS011;10079;55.740;37.662;2022-07-21T17:18:07;3.33;;;1.90;;
19836;SDS011;10079;55.740;37.662;2022-07-21T17:20:48;3.30;;;1.80;;
19836;SDS011;10079;55.740;37.662;2022-07-21T17:23:29;3.80;;;1.93;;
19836;SDS011;10079;55.740;37.662;2022-07-21T17:26:10;3.23;;;1.90;;
19836;SDS011;10079;55.740;37.662;2022-07-21T17:29:03;2.80;;;2.03;;
19836;SDS011;10079;55.740;37.662;2022-07-21T17:31:44;4.43;;;2.23;;
19836;SDS011;10079;55.740;37.662;2022-07-21T17:34:28;4.17;;;2.50;;
19836;SDS011;10079;55.740;37.662;2022-07-21T17:37:13;4.27;;;2.23;;
19836;SDS011;10079;55.740;37.662;2022-07-21T17:39:57;2.50;;;2.00;;
19836;SDS011;10079;55.740;37.662;2022-07-21T17:42:38;2.43;;;2.20;;
19836;SDS011;10079;55.740;37.662;2022-07-21T17:45:22;4.10;;;2.33;;
19836;SDS011;10079;55.740;37.662;2022-07-21T17:48:03;2.40;;;2.20;;
19836;SDS011;10079;55.740;37.662;2022-07-21T17:50:45;3.13;;;2.07;;
19836;SDS011;10079;55.740;37.662;2022-07-21T17:53:26;3.37;;;2.10;;
19836;SDS011;10079;55.740;37.662;2022-07-21T17:56:07;3.53;;;2.30;;
19836;SDS011;10079;55.740;37.662;2022-07-21T17:58:48;2.27;;;2.07;;
19836;SDS011;10079;55.740;37.662;2022-07-21T18:01:32;2.63;;;2.20;;
19836;SDS011;10079;55.740;37.662;2022-07-21T18:04:13;3.07;;;2.13;;
19836;SDS011;10079;55.740;37.662;2022-07-21T18:06:54;6.50;;;2.40;;
19836;SDS011;10079;55.740;37.662;2022-07-21T18:09:35;3.40;;;2.50;;
19836;SDS011;10079;55.740;37.662;2022-07-21T18:12:16;4.07;;;3.23;;
19836;SDS011;10079;55.740;37.662;2022-07-21T18:14:57;5.63;;;3.40;;
19836;SDS011;10079;55.740;37.662;2022-07-21T18:17:38;5.57;;;3.37;;
19836;SDS011;10079;55.740;37.662;2022-07-21T18:20:19;4.53;;;3.20;;
19836;SDS011;10079;55.740;37.662;2022-07-21T18:23:01;4.23;;;3.57;;
19836;SDS011;10079;55.740;37.662;2022-07-21T18:25:42;4.87;;;3.30;;
19836;SDS011;10079;55.740;37.662;2022-07-21T18:28:23;4.83;;;3.00;;
19836;SDS011;10079;55.740;37.662;2022-07-21T18:31:07;3.43;;;3.13;;
19836;SDS011;10079;55.740;37.662;2022-07-21T18:33:56;5.97;;;3.50;;
19836;SDS011;10079;55.740;37.662;2022-07-21T18:36:38;5.13;;;3.00;;
19836;SDS011;10079;55.740;37.662;2022-07-21T18:39:30;7.03;;;3.63;;
19836;SDS011;10079;55.740;37.662;2022-07-21T18:42:23;3.57;;;2.90;;
19836;SDS011;10079;55.740;37.662;2022-07-21T18:55:51;3.33;;;2.73;;
19836;SDS011;10079;55.740;37.662;2022-07-21T18:58:35;4.93;;;3.57;;
19836;SDS011;10079;55.740;37.662;2022-07-21T19:01:19;3.23;;;2.90;;
19836;SDS011;10079;55.740;37.662;2022-07-21T19:04:00;5.57;;;3.00;;
19836;SDS011;10079;55.740;37.662;2022-07-21T19:06:41;4.87;;;3.33;;
19836;SDS011;10079;55.740;37.662;2022-07-21T19:09:25;4.40;;;3.33;;
19836;SDS011;10079;55.740;37.662;2022-07-21T19:12:06;3.90;;;2.90;;
19836;SDS011;10079;55.740;37.662;2022-07-21T19:14:47;3.97;;;3.10;;
19836;SDS011;10079;55.740;37.662;2022-07-21T19:28:14;3.73;;;3.43;;
19836;SDS011;10079;55.740;37.662;2022-07-21T19:30:58;4.27;;;3.47;;
19836;SDS011;10079;55.740;37.662;2022-07-21T19:33:42;3.90;;;3.50;;